sensor_id;sensor_type;location;lat;lon;timestamp;P1;durP1;ratioP1;P2;durP2;ratioP2
5147;SDS011;2592;48.140;7.614;2023-01-28T00:00:57;7.73;;;6.93;;
5147;SDS011;2592;48.140;7.614;2023-01-28T00:03:23;10.00;;;7.73;;
5147;SDS011;2592;48.140;7.614;2023-01-28T00:05:50;9.37;;;6.97;;
5147;SDS011;2592;48.140;7.614;2023-01-28T00:08:16;12.10;;;7.67;;
5147;SDS011;2592;48.140;7.614;2023-01-28T00:10:44;8.53;;;7.63;;
5147;SDS011;2592;48.140;7.614;2023-01-28T00:13:11;9.90;;;7.93;;
5147;SDS011;2592;48.140;7.614;2023-01-28T00:15:38;8.77;;;7.87;;
5147;SDS011;2592;48.140;7.614;2023-01-28T00:18:05;11.80;;;7.53;;
5147;SDS011;2592;48.140;7.614;2023-01-28T00:20:31;9.47;;;7.47;;
5147;SDS011;2592;48.140;7.614;2023-01-28T00:22:59;9.90;;;8.07;;
5147;SDS011;2592;48.140;7.614;2023-01-28T00:25:25;10.73;;;8.13;;
5147;SDS011;2592;48.140;7.614;2023-01-28T00:27:53;9.50;;;8.40;;
5147;SDS011;2592;48.140;7.614;2023-01-28T00:30:19;8.50;;;7.60;;
5147;SDS011;2592;48.140;7.614;2023-01-28T00:32:46;9.43;;;7.50;;
5147;SDS011;2592;48.140;7.614;2023-01-28T00:35:12;9.47;;;8.17;;
5147;SDS011;2592;48.140;7.614;2023-01-28T00:37:39;11.33;;;8.33;;
5147;SDS011;2592;48.140;7.614;2023-01-28T00:40:06;13.20;;;8.40;;
5147;SDS011;2592;48.140;7.614;2023-01-28T00:42:33;8.43;;;6.83;;
5147;SDS011;2592;48.140;7.614;2023-01-28T00:45:02;9.53;;;7.40;;
5147;SDS011;2592;48.140;7.614;2023-01-28T00:47:29;9.07;;;8.07;;
5147;SDS011;2592;48.140;7.614;2023-01-28T00:49:55;8.97;;;7.60;;
5147;SDS011;2592;48.140;7.614;2023-01-28T00:52:22;7.93;;;7.13;;
5147;SDS011;2592;48.140;7.614;2023-01-28T00:54:48;8.90;;;8.00;;
5147;SDS011;2592;48.140;7.614;2023-01-28T00:57:14;7.47;;;6.77;;
5147;SDS011;2592;48.140;7.614;2023-01-28T00:59:41;8.53;;;7.63;;
5147;SDS011;2592;48.140;7.614;2023-01-28T01:02:09;12.53;;;7.80;;
5147;SDS011;2592;48.140;7.614;2023-01-28T01:04:37;10.40;;;8.17;;
5147;SDS011;2592;48.140;7.614;2023-01-28T01:07:03;8.37;;;7.40;;
5147;SDS011;2592;48.140;7.614;2023-01-28T01:09:30;9.37;;;6.90;;
5147;SDS011;2592;48.140;7.614;2023-01-28T01:11:56;8.67;;;7.70;;
5147;SDS011;2592;48.140;7.614;2023-01-28T01:14:23;8.53;;;7.63;;
5147;SDS011;2592;48.140;7.614;2023-01-28T01:16:49;11.00;;;8.27;;
5147;SDS011;2592;48.140;7.614;2023-01-28T01:19:17;9.00;;;7.83;;
5147;SDS011;2592;48.140;7.614;2023-01-28T01:21:43;10.03;;;8.00;;
5147;SDS011;2592;48.140;7.614;2023-01-28T01:24:14;9.17;;;8.07;;
5147;SDS011;2592;48.140;7.614;2023-01-28T01:26:40;9.13;;;8.23;;
5147;SDS011;2592;48.140;7.614;2023-01-28T01:29:07;7.53;;;6.80;;
5147;SDS011;2592;48.140;7.614;2023-01-28T01:31:34;8.97;;;7.57;;
5147;SDS011;2592;48.140;7.614;2023-01-28T01:34:00;7.70;;;6.70;;
5147;SDS011;2592;48.140;7.614;2023-01-28T01:36:28;8.70;;;7.60;;
5147;SDS011;2592;48.140;7.614;2023-01-28T01:38:54;9.10;;;6.80;;
5147;SDS011;2592;48.140;7.614;2023-01-28T01:41:22;8.47;;;7.50;;
5147;SDS011;2592;48.140;7.614;2023-01-28T01:43:49;7.80;;;7.00;;
5147;SDS011;2592;48.140;7.614;2023-01-28T01:46:16;7.70;;;6.90;;
5147;SDS011;2592;48.140;7.614;2023-01-28T01:48:44;8.97;;;8.07;;
5147;SDS011;2592;48.140;7.614;2023-01-28T01:51:11;10.70;;;7.40;;
5147;SDS011;2592;48.140;7.614;2023-01-28T01:53:41;8.73;;;7.60;;
5147;SDS011;2592;48.140;7.614;2023-01-28T01:56:09;10.40;;;7.50;;
5147;SDS011;2592;48.140;7.614;2023-01-28T01:58:38;8.10;;;7.30;;
5147;SDS011;2592;48.140;7.614;2023-01-28T02:01:06;9.33;;;7.00;;
5147;SDS011;2592;48.140;7.614;2023-01-28T02:03:32;8.20;;;7.00;;
5147;SDS011;2592;48.140;7.614;2023-01-28T02:06:02;9.77;;;7.80;;
5147;SDS011;2592;48.140;7.614;2023-01-28T02:08:28;7.87;;;7.07;;
5147;SDS011;2592;48.140;7.614;2023-01-28T02:10:57;7.80;;;7.10;;
5147;SDS011;2592;48.140;7.614;2023-01-28T02:13:25;8.00;;;6.80;;
5147;SDS011;2592;48.140;7.614;2023-01-28T02:15:53;11.93;;;8.13;;
5147;SDS011;2592;48.140;7.614;2023-01-28T02:18:20;11.60;;;8.20;;
5147;SDS011;2592;48.140;7.614;2023-01-28T02:20:52;8.30;;;7.37;;
5147;SDS011;2592;48.140;7.614;2023-01-28T02:23:26;7.37;;;6.67;;
5147;SDS011;2592;48.140;7.614;2023-01-28T02:26:04;9.03;;;7.43;;
5147;SDS011;2592;48.140;7.614;2023-01-28T02:28:37;7.40;;;6.70;;
5147;SDS011;2592;48.140;7.614;2023-01-28T02:31:06;10.27;;;7.13;;
5147;SDS011;2592;48.140;7.614;2023-01-28T02:33:35;9.07;;;7.13;;
5147;SDS011;2592;48.140;7.614;2023-01-28T02:36:07;7.37;;;6.67;;
5147;SDS011;2592;48.140;7.614;2023-01-28T02:38:37;7.07;;;6.30;;
5147;SDS011;2592;48.140;7.614;2023-01-28T02:41:05;8.50;;;7.40;;
5147;SDS011;2592;48.140;7.614;2023-01-28T02:43:35;7.43;;;6.63;;
5147;SDS011;2592;48.140;7.614;2023-01-28T02:46:07;7.50;;;6.30;;
5147;SDS011;2592;48.140;7.614;2023-01-28T02:48:53;5.80;;;5.30;;
5147;SDS011;2592;48.140;7.614;2023-01-28T02:51:22;7.10;;;6.10;;
5147;SDS011;2592;48.140;7.614;2023-01-28T02:53:56;7.23;;;6.50;;
5147;SDS011;2592;48.140;7.614;2023-01-28T02:56:24;7.03;;;6.30;;
5147;SDS011;2592;48.140;7.614;2023-01-28T02:58:55;6.80;;;6.10;;
5147;SDS011;2592;48.140;7.614;2023-01-28T03:01:27;5.33;;;4.73;;
5147;SDS011;2592;48.140;7.614;2023-01-28T03:03:57;7.50;;;5.90;;
5147;SDS011;2592;48.140;7.614;2023-01-28T03:06:25;6.10;;;5.60;;
5147;SDS011;2592;48.140;7.614;2023-01-28T03:08:55;8.00;;;6.00;;
5147;SDS011;2592;48.140;7.614;2023-01-28T03:11:40;7.13;;;5.67;;
5147;SDS011;2592;48.140;7.614;2023-01-28T03:14:25;6.20;;;5.60;;
5147;SDS011;2592;48.140;7.614;2023-01-28T03:17:11;9.83;;;8.00;;
5147;SDS011;2592;48.140;7.614;2023-01-28T03:19:56;6.03;;;4.80;;
5147;SDS011;2592;48.140;7.614;2023-01-28T03:22:40;6.17;;;5.17;;
5147;SDS011;2592;48.140;7.614;2023-01-28T03:25:25;4.70;;;4.23;;
5147;SDS011;2592;48.140;7.614;2023-01-28T03:28:10;4.80;;;4.40;;
5147;SDS011;2592;48.140;7.614;2023-01-28T03:30:55;5.13;;;4.63;;
5147;SDS011;2592;48.140;7.614;2023-01-28T03:33:41;5.03;;;4.53;;
5147;SDS011;2592;48.140;7.614;2023-01-28T03:36:26;4.67;;;4.20;;
5147;SDS011;2592;48.140;7.614;2023-01-28T03:39:10;5.20;;;4.43;;
5147;SDS011;2592;48.140;7.614;2023-01-28T03:41:36;3.97;;;3.63;;
5147;SDS011;2592;48.140;7.614;2023-01-28T03:44:03;4.77;;;4.37;;
5147;SDS011;2592;48.140;7.614;2023-01-28T03:46:47;4.50;;;4.10;;
5147;SDS011;2592;48.140;7.614;2023-01-28T03:49:15;4.57;;;3.93;;
5147;SDS011;2592;48.140;7.614;2023-01-28T03:51:42;4.27;;;3.97;;
5147;SDS011;2592;48.140;7.614;2023-01-28T03:54:10;4.13;;;3.83;;
5147;SDS011;2592;48.140;7.614;2023-01-28T03:56:36;4.03;;;3.73;;
5147;SDS011;2592;48.140;7.614;2023-01-28T03:59:04;3.83;;;3.53;;
5147;SDS011;2592;48.140;7.614;2023-01-28T04:01:30;3.77;;;3.47;;
5147;SDS011;2592;48.140;7.614;2023-01-28T04:03:57;4.40;;;4.10;;
5147;SDS011;2592;48.140;7.614;2023-01-28T04:06:25;4.00;;;3.70;;
5147;SDS011;2592;48.140;7.614;2023-01-28T04:08:51;3.70;;;3.40;;
5147;SDS011;2592;48.140;7.614;2023-01-28T04:11:18;10.73;;;4.70;;
5147;SDS011;2592;48.140;7.614;2023-01-28T04:13:46;4.37;;;3.97;;
5147;SDS011;2592;48.140;7.614;2023-01-28T04:16:12;4.70;;;4.30;;
5147;SDS011;2592;48.140;7.614;2023-01-28T04:18:39;4.53;;;4.13;;
5147;SDS011;2592;48.140;7.614;2023-01-28T04:21:05;4.43;;;4.03;;
5147;SDS011;2592;48.140;7.614;2023-01-28T04:23:33;4.77;;;4.33;;
5147;SDS011;2592;48.140;7.614;2023-01-28T04:25:59;4.47;;;4.07;;
5147;SDS011;2592;48.140;7.614;2023-01-28T04:28:26;5.00;;;4.57;;
5147;SDS011;2592;48.140;7.614;2023-01-28T04:30:52;5.10;;;4.70;;
5147;SDS011;2592;48.140;7.614;2023-01-28T04:33:18;5.80;;;5.30;;
5147;SDS011;2592;48.140;7.614;2023-01-28T04:35:45;5.30;;;4.80;;
5147;SDS011;2592;48.140;7.614;2023-01-28T04:38:11;3.60;;;3.30;;
5147;SDS011;2592;48.140;7.614;2023-01-28T04:40:39;4.33;;;3.93;;
5147;SDS011;2592;48.140;7.614;2023-01-28T04:43:05;4.37;;;4.00;;
5147;SDS011;2592;48.140;7.614;2023-01-28T04:45:32;4.33;;;4.00;;
5147;SDS011;2592;48.140;7.614;2023-01-28T04:47:58;4.00;;;3.70;;
5147;SDS011;2592;48.140;7.614;2023-01-28T04:50:25;4.97;;;4.23;;
5147;SDS011;2592;48.140;7.614;2023-01-28T04:52:51;4.83;;;4.20;;
5147;SDS011;2592;48.140;7.614;2023-01-28T04:55:17;3.37;;;3.17;;
5147;SDS011;2592;48.140;7.614;2023-01-28T04:57:46;4.00;;;3.70;;
5147;SDS011;2592;48.140;7.614;2023-01-28T05:00:13;3.63;;;3.40;;
5147;SDS011;2592;48.140;7.614;2023-01-28T05:02:39;3.70;;;3.50;;
5147;SDS011;2592;48.140;7.614;2023-01-28T05:05:06;9.27;;;8.23;;
5147;SDS011;2592;48.140;7.614;2023-01-28T05:07:33;7.20;;;6.53;;
5147;SDS011;2592;48.140;7.614;2023-01-28T05:10:00;5.63;;;5.13;;
5147;SDS011;2592;48.140;7.614;2023-01-28T05:12:26;4.90;;;4.50;;
5147;SDS011;2592;48.140;7.614;2023-01-28T05:14:55;5.30;;;4.90;;
5147;SDS011;2592;48.140;7.614;2023-01-28T05:17:21;4.90;;;4.40;;
5147;SDS011;2592;48.140;7.614;2023-01-28T05:19:47;5.87;;;4.73;;
5147;SDS011;2592;48.140;7.614;2023-01-28T05:22:14;5.53;;;5.07;;
5147;SDS011;2592;48.140;7.614;2023-01-28T05:24:40;5.87;;;5.27;;
5147;SDS011;2592;48.140;7.614;2023-01-28T05:27:07;5.37;;;4.97;;
5147;SDS011;2592;48.140;7.614;2023-01-28T05:29:33;4.60;;;4.20;;
5147;SDS011;2592;48.140;7.614;2023-01-28T05:32:01;4.10;;;3.80;;
5147;SDS011;2592;48.140;7.614;2023-01-28T05:34:27;5.00;;;4.60;;
5147;SDS011;2592;48.140;7.614;2023-01-28T05:36:54;5.00;;;4.50;;
5147;SDS011;2592;48.140;7.614;2023-01-28T05:39:20;4.73;;;4.40;;
5147;SDS011;2592;48.140;7.614;2023-01-28T05:41:46;5.97;;;4.13;;
5147;SDS011;2592;48.140;7.614;2023-01-28T05:44:13;4.93;;;4.53;;
5147;SDS011;2592;48.140;7.614;2023-01-28T05:46:39;4.60;;;4.20;;
5147;SDS011;2592;48.140;7.614;2023-01-28T05:49:10;6.20;;;4.53;;
5147;SDS011;2592;48.140;7.614;2023-01-28T05:51:37;3.97;;;3.67;;
5147;SDS011;2592;48.140;7.614;2023-01-28T05:54:04;5.63;;;4.07;;
5147;SDS011;2592;48.140;7.614;2023-01-28T05:56:30;4.27;;;3.90;;
5147;SDS011;2592;48.140;7.614;2023-01-28T05:58:57;4.13;;;3.80;;
5147;SDS011;2592;48.140;7.614;2023-01-28T06:01:24;4.83;;;4.43;;
5147;SDS011;2592;48.140;7.614;2023-01-28T06:03:50;5.33;;;4.70;;
5147;SDS011;2592;48.140;7.614;2023-01-28T06:06:18;9.17;;;7.60;;
5147;SDS011;2592;48.140;7.614;2023-01-28T06:08:44;5.40;;;4.90;;
5147;SDS011;2592;48.140;7.614;2023-01-28T06:11:11;5.10;;;4.70;;
5147;SDS011;2592;48.140;7.614;2023-01-28T06:13:37;14.83;;;5.27;;
5147;SDS011;2592;48.140;7.614;2023-01-28T06:16:05;4.03;;;3.73;;
5147;SDS011;2592;48.140;7.614;2023-01-28T06:18:32;3.97;;;3.60;;
5147;SDS011;2592;48.140;7.614;2023-01-28T06:20:59;4.67;;;4.27;;
5147;SDS011;2592;48.140;7.614;2023-01-28T06:23:26;5.07;;;4.30;;
5147;SDS011;2592;48.140;7.614;2023-01-28T06:25:53;3.90;;;3.60;;
5147;SDS011;2592;48.140;7.614;2023-01-28T06:28:19;3.87;;;3.57;;
5147;SDS011;2592;48.140;7.614;2023-01-28T06:30:46;5.83;;;4.70;;
5147;SDS011;2592;48.140;7.614;2023-01-28T06:33:13;6.87;;;5.30;;
5147;SDS011;2592;48.140;7.614;2023-01-28T06:35:39;4.73;;;4.23;;
5147;SDS011;2592;48.140;7.614;2023-01-28T06:38:06;4.40;;;3.90;;
5147;SDS011;2592;48.140;7.614;2023-01-28T06:40:34;5.70;;;3.70;;
5147;SDS011;2592;48.140;7.614;2023-01-28T06:43:01;4.10;;;3.70;;
5147;SDS011;2592;48.140;7.614;2023-01-28T06:45:27;4.00;;;3.70;;
5147;SDS011;2592;48.140;7.614;2023-01-28T06:47:53;3.90;;;3.60;;
5147;SDS011;2592;48.140;7.614;2023-01-28T06:50:20;3.80;;;3.50;;
5147;SDS011;2592;48.140;7.614;2023-01-28T06:52:46;3.20;;;3.00;;
5147;SDS011;2592;48.140;7.614;2023-01-28T06:55:13;2.97;;;2.77;;
5147;SDS011;2592;48.140;7.614;2023-01-28T06:57:40;3.80;;;3.50;;
5147;SDS011;2592;48.140;7.614;2023-01-28T07:00:09;4.73;;;4.33;;
5147;SDS011;2592;48.140;7.614;2023-01-28T07:02:36;3.57;;;3.30;;
5147;SDS011;2592;48.140;7.614;2023-01-28T07:05:03;4.87;;;4.23;;
5147;SDS011;2592;48.140;7.614;2023-01-28T07:07:29;4.23;;;3.90;;
5147;SDS011;2592;48.140;7.614;2023-01-28T07:09:55;4.37;;;3.97;;
5147;SDS011;2592;48.140;7.614;2023-01-28T07:12:22;6.10;;;5.50;;
5147;SDS011;2592;48.140;7.614;2023-01-28T07:14:50;5.00;;;4.60;;
5147;SDS011;2592;48.140;7.614;2023-01-28T07:17:16;4.30;;;4.00;;
5147;SDS011;2592;48.140;7.614;2023-01-28T07:19:43;11.43;;;4.67;;
5147;SDS011;2592;48.140;7.614;2023-01-28T07:22:09;12.23;;;4.20;;
5147;SDS011;2592;48.140;7.614;2023-01-28T07:24:36;4.43;;;4.03;;
5147;SDS011;2592;48.140;7.614;2023-01-28T07:27:02;4.97;;;4.53;;
5147;SDS011;2592;48.140;7.614;2023-01-28T07:29:28;5.00;;;4.50;;
5147;SDS011;2592;48.140;7.614;2023-01-28T07:31:56;4.50;;;4.10;;
5147;SDS011;2592;48.140;7.614;2023-01-28T07:34:23;5.00;;;4.50;;
5147;SDS011;2592;48.140;7.614;2023-01-28T07:36:49;4.97;;;4.57;;
5147;SDS011;2592;48.140;7.614;2023-01-28T07:39:16;5.27;;;4.83;;
5147;SDS011;2592;48.140;7.614;2023-01-28T07:41:42;5.37;;;4.50;;
5147;SDS011;2592;48.140;7.614;2023-01-28T07:44:08;4.33;;;3.93;;
5147;SDS011;2592;48.140;7.614;2023-01-28T07:46:35;5.47;;;4.40;;
5147;SDS011;2592;48.140;7.614;2023-01-28T07:49:03;4.80;;;4.33;;
5147;SDS011;2592;48.140;7.614;2023-01-28T07:51:30;5.00;;;4.60;;
5147;SDS011;2592;48.140;7.614;2023-01-28T07:53:56;5.63;;;5.03;;
5147;SDS011;2592;48.140;7.614;2023-01-28T07:56:22;5.40;;;5.00;;
5147;SDS011;2592;48.140;7.614;2023-01-28T07:58:51;5.00;;;4.60;;
5147;SDS011;2592;48.140;7.614;2023-01-28T08:01:17;5.13;;;4.70;;
5147;SDS011;2592;48.140;7.614;2023-01-28T08:03:44;10.67;;;7.60;;
5147;SDS011;2592;48.140;7.614;2023-01-28T08:06:11;41.17;;;31.70;;
5147;SDS011;2592;48.140;7.614;2023-01-28T08:08:38;29.80;;;26.60;;
5147;SDS011;2592;48.140;7.614;2023-01-28T08:11:07;28.50;;;25.60;;
5147;SDS011;2592;48.140;7.614;2023-01-28T08:13:34;13.50;;;12.23;;
5147;SDS011;2592;48.140;7.614;2023-01-28T08:16:01;8.27;;;7.47;;
5147;SDS011;2592;48.140;7.614;2023-01-28T08:18:28;6.13;;;5.63;;
5147;SDS011;2592;48.140;7.614;2023-01-28T08:20:54;8.63;;;7.83;;
5147;SDS011;2592;48.140;7.614;2023-01-28T08:23:22;6.90;;;6.37;;
5147;SDS011;2592;48.140;7.614;2023-01-28T08:25:51;5.90;;;5.40;;
5147;SDS011;2592;48.140;7.614;2023-01-28T08:28:17;12.57;;;9.90;;
5147;SDS011;2592;48.140;7.614;2023-01-28T08:30:44;11.93;;;9.10;;
5147;SDS011;2592;48.140;7.614;2023-01-28T08:33:12;10.63;;;8.80;;
5147;SDS011;2592;48.140;7.614;2023-01-28T08:35:38;15.97;;;14.27;;
5147;SDS011;2592;48.140;7.614;2023-01-28T08:38:05;6.73;;;6.03;;
5147;SDS011;2592;48.140;7.614;2023-01-28T08:40:33;6.47;;;5.73;;
5147;SDS011;2592;48.140;7.614;2023-01-28T08:43:00;6.23;;;5.60;;
5147;SDS011;2592;48.140;7.614;2023-01-28T08:45:27;5.80;;;5.30;;
5147;SDS011;2592;48.140;7.614;2023-01-28T08:47:54;6.30;;;5.80;;
5147;SDS011;2592;48.140;7.614;2023-01-28T08:50:22;7.10;;;5.60;;
5147;SDS011;2592;48.140;7.614;2023-01-28T08:52:53;4.80;;;4.40;;
5147;SDS011;2592;48.140;7.614;2023-01-28T08:55:20;5.63;;;5.13;;
5147;SDS011;2592;48.140;7.614;2023-01-28T08:57:48;5.83;;;5.33;;
5147;SDS011;2592;48.140;7.614;2023-01-28T09:00:14;4.83;;;4.43;;
5147;SDS011;2592;48.140;7.614;2023-01-28T09:02:41;5.73;;;5.23;;
5147;SDS011;2592;48.140;7.614;2023-01-28T09:05:07;7.37;;;4.97;;
5147;SDS011;2592;48.140;7.614;2023-01-28T09:07:35;5.37;;;4.87;;
5147;SDS011;2592;48.140;7.614;2023-01-28T09:10:02;6.40;;;5.50;;
5147;SDS011;2592;48.140;7.614;2023-01-28T09:12:28;6.50;;;5.30;;
5147;SDS011;2592;48.140;7.614;2023-01-28T09:14:56;8.33;;;5.50;;
5147;SDS011;2592;48.140;7.614;2023-01-28T09:17:22;8.50;;;6.83;;
5147;SDS011;2592;48.140;7.614;2023-01-28T09:19:49;6.40;;;5.10;;
5147;SDS011;2592;48.140;7.614;2023-01-28T09:22:15;6.13;;;5.53;;
5147;SDS011;2592;48.140;7.614;2023-01-28T09:24:42;6.43;;;5.30;;
5147;SDS011;2592;48.140;7.614;2023-01-28T09:27:08;8.07;;;7.27;;
5147;SDS011;2592;48.140;7.614;2023-01-28T09:29:34;10.43;;;7.80;;
5147;SDS011;2592;48.140;7.614;2023-01-28T09:32:03;6.90;;;6.30;;
5147;SDS011;2592;48.140;7.614;2023-01-28T09:34:30;7.30;;;6.60;;
5147;SDS011;2592;48.140;7.614;2023-01-28T09:36:56;7.07;;;6.40;;
5147;SDS011;2592;48.140;7.614;2023-01-28T09:39:23;6.33;;;5.73;;
5147;SDS011;2592;48.140;7.614;2023-01-28T09:41:54;6.50;;;5.90;;
5147;SDS011;2592;48.140;7.614;2023-01-28T09:44:26;5.90;;;5.40;;
5147;SDS011;2592;48.140;7.614;2023-01-28T09:46:59;6.73;;;5.87;;
5147;SDS011;2592;48.140;7.614;2023-01-28T09:49:28;6.67;;;6.07;;
5147;SDS011;2592;48.140;7.614;2023-01-28T09:51:57;8.53;;;6.20;;
5147;SDS011;2592;48.140;7.614;2023-01-28T09:54:26;5.80;;;5.20;;
5147;SDS011;2592;48.140;7.614;2023-01-28T09:56:56;5.17;;;4.67;;
5147;SDS011;2592;48.140;7.614;2023-01-28T09:59:26;6.50;;;5.90;;
5147;SDS011;2592;48.140;7.614;2023-01-28T10:01:54;6.30;;;5.70;;
5147;SDS011;2592;48.140;7.614;2023-01-28T10:04:26;7.03;;;6.10;;
5147;SDS011;2592;48.140;7.614;2023-01-28T10:06:58;5.80;;;5.30;;
5147;SDS011;2592;48.140;7.614;2023-01-28T10:09:31;6.73;;;6.10;;
5147;SDS011;2592;48.140;7.614;2023-01-28T10:14:48;4.90;;;4.47;;
5147;SDS011;2592;48.140;7.614;2023-01-28T10:17:15;4.70;;;4.30;;
5147;SDS011;2592;48.140;7.614;2023-01-28T10:19:44;5.10;;;4.70;;
5147;SDS011;2592;48.140;7.614;2023-01-28T10:22:15;5.30;;;4.80;;
5147;SDS011;2592;48.140;7.614;2023-01-28T10:24:44;4.40;;;4.00;;
5147;SDS011;2592;48.140;7.614;2023-01-28T10:27:14;4.53;;;4.13;;
5147;SDS011;2592;48.140;7.614;2023-01-28T10:29:41;6.43;;;5.90;;
5147;SDS011;2592;48.140;7.614;2023-01-28T10:32:14;6.53;;;5.93;;
5147;SDS011;2592;48.140;7.614;2023-01-28T10:34:41;6.67;;;6.07;;
5147;SDS011;2592;48.140;7.614;2023-01-28T10:37:08;5.83;;;5.30;;
5147;SDS011;2592;48.140;7.614;2023-01-28T10:39:36;6.30;;;5.20;;
5147;SDS011;2592;48.140;7.614;2023-01-28T10:42:07;6.13;;;5.53;;
5147;SDS011;2592;48.140;7.614;2023-01-28T10:44:36;4.83;;;4.43;;
5147;SDS011;2592;48.140;7.614;2023-01-28T10:47:11;5.63;;;5.17;;
5147;SDS011;2592;48.140;7.614;2023-01-28T10:49:40;9.33;;;5.47;;
5147;SDS011;2592;48.140;7.614;2023-01-28T10:52:10;5.53;;;5.13;;
5147;SDS011;2592;48.140;7.614;2023-01-28T10:54:38;6.10;;;5.50;;
5147;SDS011;2592;48.140;7.614;2023-01-28T10:57:06;14.80;;;9.53;;
5147;SDS011;2592;48.140;7.614;2023-01-28T10:59:36;5.77;;;5.20;;
5147;SDS011;2592;48.140;7.614;2023-01-28T11:02:18;5.53;;;5.03;;
5147;SDS011;2592;48.140;7.614;2023-01-28T11:04:46;5.27;;;4.87;;
5147;SDS011;2592;48.140;7.614;2023-01-28T11:07:15;5.70;;;4.83;;
5147;SDS011;2592;48.140;7.614;2023-01-28T11:09:45;4.87;;;4.47;;
5147;SDS011;2592;48.140;7.614;2023-01-28T11:12:12;9.30;;;6.00;;
5147;SDS011;2592;48.140;7.614;2023-01-28T11:14:43;4.63;;;4.07;;
5147;SDS011;2592;48.140;7.614;2023-01-28T11:17:15;11.93;;;8.13;;
5147;SDS011;2592;48.140;7.614;2023-01-28T11:19:41;6.00;;;5.40;;
5147;SDS011;2592;48.140;7.614;2023-01-28T11:22:13;4.60;;;4.20;;
5147;SDS011;2592;48.140;7.614;2023-01-28T11:24:48;3.70;;;3.40;;
5147;SDS011;2592;48.140;7.614;2023-01-28T11:27:15;8.47;;;6.50;;
5147;SDS011;2592;48.140;7.614;2023-01-28T11:29:42;6.70;;;5.47;;
5147;SDS011;2592;48.140;7.614;2023-01-28T11:32:15;7.40;;;5.30;;
5147;SDS011;2592;48.140;7.614;2023-01-28T11:34:47;6.63;;;5.93;;
5147;SDS011;2592;48.140;7.614;2023-01-28T11:37:13;5.67;;;4.90;;
5147;SDS011;2592;48.140;7.614;2023-01-28T11:39:40;5.10;;;4.50;;
5147;SDS011;2592;48.140;7.614;2023-01-28T11:42:13;4.10;;;3.80;;
5147;SDS011;2592;48.140;7.614;2023-01-28T11:44:41;5.10;;;4.50;;
5147;SDS011;2592;48.140;7.614;2023-01-28T11:50:05;5.27;;;4.77;;
5147;SDS011;2592;48.140;7.614;2023-01-28T11:52:37;4.83;;;4.37;;
5147;SDS011;2592;48.140;7.614;2023-01-28T11:55:10;5.17;;;4.67;;
5147;SDS011;2592;48.140;7.614;2023-01-28T11:57:44;5.00;;;4.60;;
5147;SDS011;2592;48.140;7.614;2023-01-28T12:00:24;4.37;;;4.00;;
5147;SDS011;2592;48.140;7.614;2023-01-28T12:02:58;5.93;;;4.73;;
5147;SDS011;2592;48.140;7.614;2023-01-28T12:08:11;4.30;;;3.90;;
5147;SDS011;2592;48.140;7.614;2023-01-28T12:10:45;4.23;;;3.83;;
5147;SDS011;2592;48.140;7.614;2023-01-28T12:13:22;6.40;;;4.87;;
5147;SDS011;2592;48.140;7.614;2023-01-28T12:18:39;5.50;;;5.00;;
5147;SDS011;2592;48.140;7.614;2023-01-28T12:21:09;5.07;;;4.60;;
5147;SDS011;2592;48.140;7.614;2023-01-28T12:23:46;3.87;;;3.57;;
5147;SDS011;2592;48.140;7.614;2023-01-28T12:26:17;4.30;;;4.00;;
5147;SDS011;2592;48.140;7.614;2023-01-28T12:28:54;4.50;;;4.10;;
5147;SDS011;2592;48.140;7.614;2023-01-28T12:31:32;10.00;;;5.70;;
5147;SDS011;2592;48.140;7.614;2023-01-28T12:34:06;8.03;;;5.90;;
5147;SDS011;2592;48.140;7.614;2023-01-28T12:36:41;6.10;;;5.50;;
5147;SDS011;2592;48.140;7.614;2023-01-28T12:39:15;6.37;;;5.53;;
5147;SDS011;2592;48.140;7.614;2023-01-28T12:41:46;6.20;;;5.60;;
5147;SDS011;2592;48.140;7.614;2023-01-28T12:44:16;6.07;;;5.40;;
5147;SDS011;2592;48.140;7.614;2023-01-28T12:46:45;5.47;;;4.97;;
5147;SDS011;2592;48.140;7.614;2023-01-28T12:49:16;6.03;;;5.30;;
5147;SDS011;2592;48.140;7.614;2023-01-28T12:51:51;6.23;;;5.10;;
5147;SDS011;2592;48.140;7.614;2023-01-28T12:54:21;6.87;;;6.17;;
5147;SDS011;2592;48.140;7.614;2023-01-28T12:56:50;6.50;;;5.90;;
5147;SDS011;2592;48.140;7.614;2023-01-28T12:59:19;6.07;;;5.47;;
5147;SDS011;2592;48.140;7.614;2023-01-28T13:01:48;6.63;;;6.03;;
5147;SDS011;2592;48.140;7.614;2023-01-28T13:04:17;6.57;;;5.87;;
5147;SDS011;2592;48.140;7.614;2023-01-28T13:06:48;7.60;;;6.90;;
5147;SDS011;2592;48.140;7.614;2023-01-28T13:09:16;15.20;;;10.40;;
5147;SDS011;2592;48.140;7.614;2023-01-28T13:11:43;7.97;;;7.27;;
5147;SDS011;2592;48.140;7.614;2023-01-28T13:14:10;7.90;;;7.10;;
5147;SDS011;2592;48.140;7.614;2023-01-28T13:16:39;7.60;;;6.73;;
5147;SDS011;2592;48.140;7.614;2023-01-28T13:19:06;7.50;;;6.43;;
5147;SDS011;2592;48.140;7.614;2023-01-28T13:21:33;7.63;;;6.83;;
5147;SDS011;2592;48.140;7.614;2023-01-28T13:24:05;7.77;;;6.90;;
5147;SDS011;2592;48.140;7.614;2023-01-28T13:26:36;7.30;;;6.57;;
5147;SDS011;2592;48.140;7.614;2023-01-28T13:29:07;6.63;;;5.90;;
5147;SDS011;2592;48.140;7.614;2023-01-28T13:31:40;8.00;;;7.20;;
5147;SDS011;2592;48.140;7.614;2023-01-28T13:34:07;13.37;;;10.80;;
5147;SDS011;2592;48.140;7.614;2023-01-28T13:36:36;8.20;;;7.40;;
5147;SDS011;2592;48.140;7.614;2023-01-28T13:39:03;7.70;;;6.90;;
5147;SDS011;2592;48.140;7.614;2023-01-28T13:41:36;7.20;;;6.47;;
5147;SDS011;2592;48.140;7.614;2023-01-28T13:44:03;8.47;;;6.93;;
5147;SDS011;2592;48.140;7.614;2023-01-28T13:46:29;9.37;;;8.47;;
5147;SDS011;2592;48.140;7.614;2023-01-28T13:48:57;8.80;;;7.70;;
5147;SDS011;2592;48.140;7.614;2023-01-28T13:51:26;9.23;;;7.60;;
5147;SDS011;2592;48.140;7.614;2023-01-28T13:53:55;10.67;;;9.17;;
5147;SDS011;2592;48.140;7.614;2023-01-28T13:56:24;9.90;;;7.97;;
5147;SDS011;2592;48.140;7.614;2023-01-28T14:01:49;21.83;;;15.10;;
5147;SDS011;2592;48.140;7.614;2023-01-28T14:10:03;10.90;;;9.40;;
5147;SDS011;2592;48.140;7.614;2023-01-28T14:12:43;11.33;;;9.53;;
5147;SDS011;2592;48.140;7.614;2023-01-28T14:15:15;9.07;;;8.17;;
5147;SDS011;2592;48.140;7.614;2023-01-28T14:17:43;9.53;;;8.47;;
5147;SDS011;2592;48.140;7.614;2023-01-28T14:20:16;8.87;;;7.97;;
5147;SDS011;2592;48.140;7.614;2023-01-28T14:22:43;9.30;;;8.37;;
5147;SDS011;2592;48.140;7.614;2023-01-28T14:25:14;9.57;;;8.57;;
5147;SDS011;2592;48.140;7.614;2023-01-28T14:27:41;24.70;;;16.80;;
5147;SDS011;2592;48.140;7.614;2023-01-28T14:30:12;27.93;;;20.23;;
5147;SDS011;2592;48.140;7.614;2023-01-28T14:32:43;22.27;;;17.30;;
5147;SDS011;2592;48.140;7.614;2023-01-28T14:35:14;21.70;;;16.70;;
5147;SDS011;2592;48.140;7.614;2023-01-28T14:37:41;20.03;;;15.60;;
5147;SDS011;2592;48.140;7.614;2023-01-28T14:40:12;11.60;;;10.37;;
5147;SDS011;2592;48.140;7.614;2023-01-28T14:42:40;9.80;;;8.80;;
5147;SDS011;2592;48.140;7.614;2023-01-28T14:45:13;10.87;;;9.60;;
5147;SDS011;2592;48.140;7.614;2023-01-28T14:47:50;11.43;;;9.83;;
5147;SDS011;2592;48.140;7.614;2023-01-28T14:50:25;10.77;;;9.33;;
5147;SDS011;2592;48.140;7.614;2023-01-28T14:53:13;10.70;;;8.70;;
5147;SDS011;2592;48.140;7.614;2023-01-28T14:55:44;10.80;;;9.40;;
5147;SDS011;2592;48.140;7.614;2023-01-28T14:58:14;9.73;;;8.73;;
5147;SDS011;2592;48.140;7.614;2023-01-28T15:00:51;11.47;;;9.33;;
5147;SDS011;2592;48.140;7.614;2023-01-28T15:03:18;11.53;;;9.70;;
5147;SDS011;2592;48.140;7.614;2023-01-28T15:05:44;10.40;;;8.83;;
5147;SDS011;2592;48.140;7.614;2023-01-28T15:08:18;9.43;;;8.50;;
5147;SDS011;2592;48.140;7.614;2023-01-28T15:10:46;10.10;;;9.10;;
5147;SDS011;2592;48.140;7.614;2023-01-28T15:13:15;10.47;;;8.37;;
5147;SDS011;2592;48.140;7.614;2023-01-28T15:15:45;11.00;;;8.37;;
5147;SDS011;2592;48.140;7.614;2023-01-28T15:18:14;11.20;;;9.17;;
5147;SDS011;2592;48.140;7.614;2023-01-28T15:20:42;11.03;;;9.60;;
5147;SDS011;2592;48.140;7.614;2023-01-28T15:23:11;9.87;;;8.90;;
5147;SDS011;2592;48.140;7.614;2023-01-28T15:25:39;9.40;;;8.40;;
5147;SDS011;2592;48.140;7.614;2023-01-28T15:28:08;9.20;;;8.30;;
5147;SDS011;2592;48.140;7.614;2023-01-28T15:30:43;7.97;;;7.17;;
5147;SDS011;2592;48.140;7.614;2023-01-28T15:33:10;9.80;;;8.67;;
5147;SDS011;2592;48.140;7.614;2023-01-28T15:35:44;8.80;;;7.70;;
5147;SDS011;2592;48.140;7.614;2023-01-28T15:38:11;9.17;;;8.27;;
5147;SDS011;2592;48.140;7.614;2023-01-28T15:40:39;9.03;;;8.00;;
5147;SDS011;2592;48.140;7.614;2023-01-28T15:43:11;10.03;;;8.40;;